createdAt,value
2018-09-01T00:00:13.792Z,12.75
2018-09-01T00:02:42.667Z,12.61
2018-09-01T00:05:11.192Z,12.76
2018-09-01T00:07:39.773Z,12.84
2018-09-01T00:10:08.316Z,12.85
2018-09-01T00:12:36.880Z,12.81
2018-09-01T00:15:10.512Z,12.43
2018-09-01T00:17:39.437Z,12.14
2018-09-01T00:20:07.965Z,11.96
2018-09-01T00:22:36.509Z,11.83
2018-09-01T00:25:05.081Z,11.71
2018-09-01T00:27:33.623Z,11.97
2018-09-01T00:30:02.194Z,12.18
2018-09-01T00:32:31.035Z,12.08
2018-09-01T00:34:59.537Z,12.25
2018-09-01T00:37:34.020Z,12.25
2018-09-01T00:40:02.513Z,12.11
2018-09-01T00:42:31.359Z,11.90
2018-09-01T00:44:59.964Z,11.40
2018-09-01T00:47:28.794Z,11.71
2018-09-01T00:49:57.388Z,11.37
2018-09-01T00:52:25.942Z,11.45
2018-09-01T00:54:54.473Z,11.62
2018-09-01T00:57:22.969Z,11.61
2018-09-01T00:59:51.792Z,11.97
2018-09-01T01:02:20.523Z,11.95
2018-09-01T01:04:49.108Z,12.03
2018-09-01T01:07:17.636Z,12.17
2018-09-01T01:09:46.529Z,11.74
2018-09-01T01:12:15.072Z,11.61
2018-09-01T01:14:50.140Z,11.51
2018-09-01T01:17:18.656Z,11.36
2018-09-01T01:19:47.215Z,11.41
2018-09-01T01:22:15.769Z,11.24
2018-09-01T01:24:44.394Z,11.42
2018-09-01T01:27:12.917Z,11.23
2018-09-01T01:29:41.458Z,11.33
2018-09-01T01:32:09.976Z,11.62
2018-09-01T01:34:38.559Z,11.45
2018-09-01T01:37:07.105Z,11.37
2018-09-01T01:39:35.656Z,11.56
2018-09-01T01:42:04.203Z,11.52
2018-09-01T01:44:32.796Z,11.03
2018-09-01T01:47:01.326Z,10.96
2018-09-01T01:49:29.880Z,10.92
2018-09-01T01:51:59.152Z,10.91
2018-09-01T01:54:27.717Z,10.71
2018-09-01T01:56:56.240Z,10.82
2018-09-01T01:59:24.824Z,10.61
2018-09-01T02:01:53.356Z,10.64
2018-09-01T02:04:21.913Z,10.38
2018-09-01T02:06:50.445Z,10.34
2018-09-01T02:09:19.005Z,10.40
2018-09-01T02:11:47.533Z,10.54
2018-09-01T02:14:16.093Z,10.93
2018-09-01T02:16:44.629Z,11.05
2018-09-01T02:19:13.185Z,10.98
2018-09-01T02:21:41.737Z,11.12
2018-09-01T02:24:10.359Z,11.04
2018-09-01T02:26:39.044Z,10.81
2018-09-01T02:29:07.952Z,10.21
2018-09-01T02:31:36.516Z,10.13
2018-09-01T02:34:05.100Z,10.35
2018-09-01T02:36:33.656Z,10.54
2018-09-01T02:39:02.173Z,10.23
2018-09-01T02:41:30.712Z,10.16
2018-09-01T02:43:59.265Z,9.98
2018-09-01T02:46:27.813Z,9.98
2018-09-01T02:48:56.322Z,10.19
2018-09-01T02:51:24.900Z,10.13
2018-09-01T02:53:53.449Z,10.40
2018-09-01T02:56:21.971Z,10.72
2018-09-01T02:58:50.537Z,10.29
2018-09-01T03:01:24.449Z,10.25
2018-09-01T03:03:52.977Z,9.83
2018-09-01T03:06:21.555Z,9.68
2018-09-01T03:08:50.100Z,10.49
2018-09-01T03:11:18.724Z,10.09
2018-09-01T03:13:47.300Z,9.68
2018-09-01T03:16:15.857Z,10.46
2018-09-01T03:18:44.408Z,10.53
2018-09-01T03:21:12.972Z,10.49
2018-09-01T03:23:41.504Z,10.20
2018-09-01T03:26:10.064Z,10.65
2018-09-01T03:28:38.908Z,9.75
2018-09-01T03:31:07.550Z,9.95
2018-09-01T03:33:36.091Z,10.02
2018-09-01T03:36:04.667Z,10.22
2018-09-01T03:38:33.216Z,10.12
2018-09-01T03:41:01.790Z,10.38
2018-09-01T03:43:30.332Z,10.07
2018-09-01T03:46:03.981Z,10.01
2018-09-01T03:48:32.933Z,10.58
2018-09-01T03:51:01.554Z,10.49
2018-09-01T03:53:30.105Z,10.46
2018-09-01T03:55:59.643Z,10.63
2018-09-01T03:58:28.256Z,10.08
2018-09-01T04:00:56.891Z,9.78
2018-09-01T04:03:25.429Z,9.80
2018-09-01T04:05:53.993Z,10.05
2018-09-01T04:08:22.552Z,10.19
2018-09-01T04:10:51.143Z,10.39
2018-09-01T04:13:19.672Z,9.98
2018-09-01T04:15:48.265Z,10.06
2018-09-01T04:18:16.848Z,9.83
2018-09-01T04:20:45.525Z,9.66
2018-09-01T04:23:14.110Z,9.69
2018-09-01T04:25:42.695Z,10.13
2018-09-01T04:28:11.241Z,10.20
2018-09-01T04:30:39.931Z,10.39
2018-09-01T04:33:08.460Z,9.72
2018-09-01T04:35:37.296Z,10.35
2018-09-01T04:38:05.901Z,10.50
2018-09-01T04:40:34.522Z,10.46
2018-09-01T04:43:03.089Z,9.86
2018-09-01T04:45:31.636Z,10.02
2018-09-01T04:48:00.200Z,9.95
2018-09-01T04:50:29.809Z,10.53
2018-09-01T04:52:58.380Z,10.82
2018-09-01T04:55:26.910Z,10.87
2018-09-01T04:57:55.481Z,10.64
2018-09-01T05:00:24.517Z,10.33
2018-09-01T05:02:54.152Z,10.46
2018-09-01T05:05:22.689Z,10.54
2018-09-01T05:07:51.246Z,10.72
2018-09-01T05:10:20.069Z,10.56
2018-09-01T05:12:49.518Z,10.54
2018-09-01T05:15:18.048Z,10.66
2018-09-01T05:17:46.636Z,10.75
2018-09-01T05:20:17.647Z,11.02
2018-09-01T05:22:46.379Z,11.00
2018-09-01T05:25:15.153Z,11.05
2018-09-01T05:27:43.809Z,11.33
2018-09-01T05:30:12.308Z,11.33
2018-09-01T05:32:40.865Z,10.96
2018-09-01T05:35:09.444Z,11.19
2018-09-01T05:37:38.024Z,10.82
2018-09-01T05:40:07.481Z,11.09
2018-09-01T05:42:36.076Z,10.91
2018-09-01T05:45:04.644Z,11.26
2018-09-01T05:47:33.448Z,11.36
2018-09-01T05:50:01.981Z,11.51
2018-09-01T05:52:30.936Z,11.54
2018-09-01T05:55:02.058Z,11.59
2018-09-01T05:57:31.659Z,11.62
2018-09-01T06:00:00.465Z,11.59
2018-09-01T06:02:30.287Z,11.51
2018-09-01T06:04:59.560Z,11.51
2018-09-01T06:07:28.461Z,11.65
2018-09-01T06:09:57.253Z,11.93
2018-09-01T06:12:25.879Z,11.94
2018-09-01T06:14:54.420Z,12.15
2018-09-01T06:17:23.023Z,12.12
2018-09-01T06:19:51.569Z,12.31
2018-09-01T06:22:20.128Z,12.45
2018-09-01T06:24:49.865Z,12.26
2018-09-01T06:27:24.200Z,12.50
2018-09-01T06:29:52.765Z,12.48
2018-09-01T06:32:21.409Z,12.66
2018-09-01T06:34:49.953Z,12.56
2018-09-01T06:37:18.492Z,12.81
2018-09-01T06:39:47.059Z,12.82
2018-09-01T06:42:15.605Z,12.78
2018-09-01T06:44:44.167Z,12.87
2018-09-01T06:47:12.700Z,12.87
2018-09-01T06:49:41.256Z,13.06
2018-09-01T06:52:09.852Z,13.04
2018-09-01T06:54:38.524Z,13.03
2018-09-01T06:57:07.063Z,13.20
2018-09-01T06:59:35.664Z,13.22
2018-09-01T07:02:04.308Z,13.12
2018-09-01T07:04:32.862Z,13.32
2018-09-01T07:07:01.429Z,13.37
2018-09-01T07:09:30.873Z,13.55
2018-09-01T07:11:59.755Z,13.67
2018-09-01T07:14:28.329Z,13.72
2018-09-01T07:17:00.308Z,13.94
2018-09-01T07:19:29.652Z,13.98
2018-09-01T07:21:58.586Z,14.04
2018-09-01T07:24:27.641Z,14.07
2018-09-01T07:26:57.153Z,14.16
2018-09-01T07:29:28.679Z,14.20
2018-09-01T07:31:57.937Z,14.30
2018-09-01T07:34:28.924Z,14.38
2018-09-01T07:36:57.799Z,14.52
2018-09-01T07:39:26.722Z,14.65
2018-09-01T07:42:02.263Z,14.62
2018-09-01T07:44:31.153Z,14.74
2018-09-01T07:46:59.728Z,14.88
2018-09-01T07:49:34.490Z,14.91
2018-09-01T07:52:03.308Z,14.98
2018-09-01T07:54:31.924Z,15.08
2018-09-01T07:57:01.324Z,15.05
2018-09-01T07:59:29.937Z,15.17
2018-09-01T08:01:58.810Z,15.22
2018-09-01T08:04:27.420Z,15.37
2018-09-01T08:06:55.951Z,15.44
2018-09-01T08:09:24.544Z,15.48
2018-09-01T08:11:55.157Z,15.49
2018-09-01T08:14:23.762Z,15.65
2018-09-01T08:16:52.998Z,15.86
2018-09-01T08:19:22.410Z,15.98
2018-09-01T08:21:50.936Z,16.18
2018-09-01T08:24:20.043Z,16.34
2018-09-01T08:26:48.573Z,16.22
2018-09-01T08:29:23.444Z,16.38
2018-09-01T08:31:51.956Z,16.47
2018-09-01T08:34:20.834Z,16.53
2018-09-01T08:36:49.340Z,16.62
2018-09-01T08:39:18.117Z,16.59
2018-09-01T08:41:47.072Z,16.76
2018-09-01T08:44:16.417Z,16.71
2018-09-01T08:46:47.332Z,16.83
2018-09-01T08:49:17.309Z,16.99
2018-09-01T08:51:48.818Z,17.02
2018-09-01T08:54:25.426Z,17.05
2018-09-01T08:56:54.173Z,17.12
2018-09-01T08:59:22.740Z,17.22
2018-09-01T09:01:51.314Z,17.46
2018-09-01T09:04:19.868Z,17.30
2018-09-01T09:06:48.457Z,17.38
2018-09-01T09:09:16.990Z,17.51
2018-09-01T09:11:54.844Z,17.61
2018-09-01T09:14:23.469Z,17.65
2018-09-01T09:16:52.588Z,17.67
2018-09-01T09:19:21.143Z,17.81
2018-09-01T09:21:49.699Z,17.67
2018-09-01T09:24:19.463Z,18.07
2018-09-01T09:26:48.069Z,17.78
2018-09-01T09:29:16.913Z,17.89
2018-09-01T09:31:45.804Z,17.98
2018-09-01T09:34:15.237Z,17.90
2018-09-01T09:36:43.858Z,18.06
2018-09-01T09:39:12.373Z,18.20
2018-09-01T09:41:41.923Z,18.21
2018-09-01T09:44:13.464Z,18.46
2018-09-01T09:46:42.010Z,18.67
2018-09-01T09:49:10.734Z,18.60
2018-09-01T09:51:39.384Z,18.42
2018-09-01T09:54:08.382Z,18.35
2018-09-01T09:56:36.976Z,18.39
2018-09-01T09:59:05.897Z,18.46
2018-09-01T10:01:41.597Z,18.62
2018-09-01T10:04:10.969Z,18.68
2018-09-01T10:06:40.853Z,19.09
2018-09-01T10:09:17.610Z,19.00
2018-09-01T10:11:46.821Z,19.41
2018-09-01T10:14:16.396Z,19.47
2018-09-01T10:16:45.762Z,19.76
2018-09-01T10:19:14.570Z,19.24
2018-09-01T10:21:43.695Z,19.05
2018-09-01T10:24:13.439Z,19.39
2018-09-01T10:26:42.678Z,19.65
2018-09-01T10:29:12.082Z,19.61
2018-09-01T10:31:41.402Z,19.66
2018-09-01T10:34:09.973Z,19.53
2018-09-01T10:36:38.552Z,19.69
2018-09-01T10:39:08.833Z,19.73
2018-09-01T10:41:37.528Z,19.84
2018-09-01T10:44:06.645Z,19.92
2018-09-01T10:46:35.271Z,19.91
2018-09-01T10:49:03.890Z,19.71
2018-09-01T10:51:32.453Z,19.62
2018-09-01T10:54:01.032Z,19.70
2018-09-01T10:56:29.672Z,19.78
2018-09-01T10:58:58.862Z,20.05
2018-09-01T11:01:27.490Z,19.88
2018-09-01T11:03:58.019Z,19.89
2018-09-01T11:06:26.634Z,19.45
2018-09-01T11:08:55.489Z,19.40
2018-09-01T11:11:24.278Z,19.53
2018-09-01T11:13:52.850Z,19.49
2018-09-01T11:16:21.423Z,19.39
2018-09-01T11:18:50.354Z,19.57
2018-09-01T11:21:19.061Z,19.75
2018-09-01T11:23:47.610Z,19.78
2018-09-01T11:26:16.253Z,19.82
2018-09-01T11:28:48.003Z,19.63
2018-09-01T11:31:16.660Z,19.48
2018-09-01T11:33:45.313Z,19.53
2018-09-01T11:36:13.857Z,19.75
2018-09-01T11:38:42.463Z,19.96
2018-09-01T11:41:11.092Z,19.80
2018-09-01T11:43:40.102Z,19.56
2018-09-01T11:46:08.842Z,19.58
2018-09-01T11:48:37.418Z,19.66
2018-09-01T11:51:06.553Z,19.74
2018-09-01T11:53:35.223Z,19.77
2018-09-01T11:56:04.347Z,20.05
2018-09-01T11:58:32.982Z,20.09
2018-09-01T12:01:01.706Z,20.50
2018-09-01T12:03:30.290Z,20.39
2018-09-01T12:05:58.811Z,20.82
2018-09-01T12:08:27.356Z,20.81
2018-09-01T12:10:55.947Z,20.71
2018-09-01T12:13:24.501Z,20.31
2018-09-01T12:15:53.119Z,20.16
2018-09-01T12:18:21.640Z,19.74
2018-09-01T12:20:50.152Z,19.83
2018-09-01T12:23:18.737Z,19.73
2018-09-01T12:25:47.248Z,19.70
2018-09-01T12:28:15.853Z,19.88
2018-09-01T12:30:44.324Z,20.26
2018-09-01T12:33:12.903Z,20.48
2018-09-01T12:35:41.417Z,20.92
2018-09-01T12:38:09.958Z,20.57
2018-09-01T12:40:38.478Z,20.05
2018-09-01T12:43:07.052Z,19.74
2018-09-01T12:45:35.577Z,19.68
2018-09-01T12:48:04.445Z,20.44
2018-09-01T12:50:32.965Z,20.19
2018-09-01T12:53:01.862Z,20.67
2018-09-01T12:55:30.396Z,20.63
2018-09-01T12:57:59.039Z,20.96
2018-09-01T13:00:27.613Z,20.99
2018-09-01T13:02:56.228Z,20.97
2018-09-01T13:05:24.760Z,21.15
2018-09-01T13:07:53.452Z,20.80
2018-09-01T13:10:21.962Z,20.90
2018-09-01T13:12:50.806Z,21.15
2018-09-01T13:15:19.398Z,21.38
2018-09-01T13:17:47.976Z,20.96
2018-09-01T13:20:16.525Z,20.79
2018-09-01T13:22:47.785Z,20.78
2018-09-01T13:25:16.399Z,21.13
2018-09-01T13:27:47.392Z,21.01
2018-09-01T13:30:17.062Z,21.30
2018-09-01T13:32:45.676Z,21.51
2018-09-01T13:35:14.244Z,21.93
2018-09-01T13:37:43.112Z,21.84
2018-09-01T13:40:11.772Z,21.96
2018-09-01T13:42:40.693Z,22.02
2018-09-01T13:45:09.272Z,21.90
2018-09-01T13:47:37.809Z,21.58
2018-09-01T13:50:06.409Z,21.48
2018-09-01T13:52:34.941Z,21.37
2018-09-01T13:59:56.713Z,21.00
2018-09-01T14:02:25.321Z,21.14
2018-09-01T14:04:54.883Z,21.23
2018-09-01T14:07:23.930Z,21.14
2018-09-01T14:09:53.285Z,21.44
2018-09-01T14:12:22.634Z,21.51
2018-09-01T14:14:57.145Z,21.78
2018-09-01T14:17:26.521Z,21.60
2018-09-01T14:19:55.113Z,21.34
2018-09-01T14:22:24.593Z,21.23
2018-09-01T14:24:53.192Z,21.22
2018-09-01T14:27:21.784Z,21.21
2018-09-01T14:29:50.685Z,21.10
2018-09-01T14:32:22.072Z,21.04
2018-09-01T14:34:52.249Z,20.89
2018-09-01T14:37:21.698Z,20.97
2018-09-01T14:39:52.867Z,21.00
2018-09-01T14:42:22.475Z,21.20
2018-09-01T14:44:51.128Z,21.59
2018-09-01T14:47:19.843Z,21.28
2018-09-01T14:49:49.229Z,21.02
2018-09-01T14:52:18.948Z,20.89
2018-09-01T14:54:47.588Z,20.73
2018-09-01T14:57:16.125Z,20.74
2018-09-01T14:59:46.231Z,20.54
2018-09-01T15:02:16.859Z,20.38
2018-09-01T15:04:45.637Z,20.25
2018-09-01T15:07:14.776Z,20.38
2018-09-01T15:09:44.906Z,20.33
2018-09-01T15:12:15.233Z,20.42
2018-09-01T15:14:47.260Z,20.41
2018-09-01T15:17:16.724Z,20.39
2018-09-01T15:19:45.526Z,20.62
2018-09-01T15:22:16.100Z,20.88
2018-09-01T15:24:45.750Z,20.98
2018-09-01T15:27:15.668Z,20.93
2018-09-01T15:29:45.099Z,21.22
2018-09-01T15:32:14.826Z,21.57
2018-09-01T15:34:43.495Z,21.70
2018-09-01T15:37:12.038Z,21.90
2018-09-01T15:39:41.345Z,21.95
2018-09-01T15:42:10.105Z,22.17
2018-09-01T15:44:40.028Z,22.46
2018-09-01T15:47:14.424Z,21.94
2018-09-01T15:49:44.463Z,21.73
2018-09-01T15:52:13.464Z,21.72
2018-09-01T15:54:42.716Z,21.34
2018-09-01T15:57:12.812Z,21.24
2018-09-01T15:59:41.794Z,21.37
2018-09-01T16:02:11.544Z,21.33
2018-09-01T16:04:42.115Z,21.40
2018-09-01T16:07:11.181Z,21.09
2018-09-01T16:09:40.232Z,21.09
2018-09-01T16:12:10.275Z,20.67
2018-09-01T16:14:39.076Z,20.80
2018-09-01T16:17:08.828Z,20.93
2018-09-01T16:19:38.593Z,20.97
2018-09-01T16:22:07.260Z,20.88
2018-09-01T16:24:37.806Z,20.72
2018-09-01T16:27:06.577Z,20.61
2018-09-01T16:29:46.230Z,20.53
2018-09-01T16:32:14.937Z,20.49
2018-09-01T16:34:44.622Z,20.40
2018-09-01T16:37:13.762Z,20.30
2018-09-01T16:39:42.337Z,20.13
2018-09-01T16:42:14.725Z,20.19
2018-09-01T16:44:43.525Z,20.08
2018-09-01T16:47:12.166Z,20.19
2018-09-01T16:49:40.928Z,20.20
2018-09-01T16:52:09.543Z,20.15
2018-09-01T16:54:38.076Z,20.20
2018-09-01T16:57:07.738Z,20.36
2018-09-01T16:59:37.035Z,20.11
2018-09-01T17:02:06.941Z,20.06
2018-09-01T17:04:35.882Z,19.87
2018-09-01T17:07:04.597Z,19.97
2018-09-01T17:09:34.034Z,19.97
2018-09-01T17:12:02.657Z,19.88
2018-09-01T17:14:32.023Z,19.91
2018-09-01T17:17:01.449Z,19.95
2018-09-01T17:19:30.677Z,19.78
2018-09-01T17:21:59.335Z,19.66
2018-09-01T17:24:27.905Z,19.53
2018-09-01T17:26:56.880Z,19.50
2018-09-01T17:29:25.402Z,19.23
2018-09-01T17:31:53.957Z,19.26
2018-09-01T17:34:23.416Z,19.18
2018-09-01T17:36:52.085Z,19.04
2018-09-01T17:39:20.809Z,18.96
2018-09-01T17:41:49.385Z,18.91
2018-09-01T17:44:18.141Z,18.92
2018-09-01T17:46:47.216Z,18.81
2018-09-01T17:49:15.743Z,18.58
2018-09-01T17:51:44.335Z,18.36
2018-09-01T17:54:13.886Z,18.38
2018-09-01T17:56:43.102Z,18.28
2018-09-01T17:59:12.205Z,18.09
2018-09-01T18:01:41.140Z,17.86
2018-09-01T18:04:10.178Z,17.88
2018-09-01T18:06:38.732Z,17.83
2018-09-01T18:09:07.433Z,17.52
2018-09-01T18:11:36.089Z,17.60
2018-09-01T18:14:04.692Z,17.66
2018-09-01T18:16:33.240Z,17.48
2018-09-01T18:19:01.781Z,17.38
2018-09-01T18:21:30.288Z,17.30
2018-09-01T18:23:58.923Z,17.20
2018-09-01T18:26:27.433Z,17.08
2018-09-01T18:28:55.973Z,17.03
2018-09-01T18:31:26.952Z,16.78
2018-09-01T18:33:55.501Z,16.51
2018-09-01T18:36:24.426Z,16.46
2018-09-01T18:38:53.124Z,16.34
2018-09-01T18:41:21.657Z,16.03
2018-09-01T18:43:50.228Z,16.10
2018-09-01T18:46:18.798Z,15.87
2018-09-01T18:48:47.361Z,15.85
2018-09-01T18:51:19.389Z,15.95
2018-09-01T18:53:48.082Z,15.76
2018-09-01T18:56:17.126Z,15.59
2018-09-01T18:58:45.706Z,15.43
2018-09-01T19:01:14.261Z,15.27
2018-09-01T19:03:42.902Z,15.47
2018-09-01T19:06:11.436Z,15.41
2018-09-01T19:08:39.980Z,15.06
2018-09-01T19:11:08.512Z,14.94
2018-09-01T19:13:37.101Z,14.94
2018-09-01T19:16:05.729Z,14.77
2018-09-01T19:18:34.279Z,14.60
2018-09-01T19:21:02.854Z,14.51
2018-09-01T19:23:31.367Z,14.49
2018-09-01T19:26:00.156Z,14.38
2018-09-01T19:28:28.754Z,14.42
2018-09-01T19:30:57.265Z,14.25
2018-09-01T19:33:25.827Z,14.03
2018-09-01T19:35:54.342Z,14.02
2018-09-01T19:38:22.884Z,14.13
2018-09-01T19:40:51.395Z,13.95
2018-09-01T19:43:19.940Z,13.83
2018-09-01T19:45:48.493Z,14.28
2018-09-01T19:48:17.862Z,14.32
2018-09-01T19:50:46.498Z,14.34
2018-09-01T19:53:15.053Z,14.41
2018-09-01T19:55:43.824Z,14.03
2018-09-01T19:58:12.668Z,13.97
2018-09-01T20:00:41.552Z,13.83
2018-09-01T20:03:10.126Z,13.61
2018-09-01T20:05:38.648Z,13.48
2018-09-01T20:08:07.226Z,13.26
2018-09-01T20:10:35.795Z,13.51
2018-09-01T20:13:06.239Z,13.44
2018-09-01T20:15:34.945Z,13.56
2018-09-01T20:18:03.644Z,13.53
2018-09-01T20:20:32.213Z,13.06
2018-09-01T20:23:00.780Z,13.19
2018-09-01T20:25:29.392Z,13.33
2018-09-01T20:27:57.945Z,13.19
2018-09-01T20:30:26.521Z,13.11
2018-09-01T20:32:55.049Z,12.80
2018-09-01T20:35:29.114Z,12.72
2018-09-01T20:37:57.700Z,12.16
2018-09-01T20:40:26.243Z,12.15
2018-09-01T20:42:59.221Z,12.52
2018-09-01T20:45:32.791Z,12.56
2018-09-01T20:48:02.966Z,12.72
2018-09-01T20:50:35.333Z,12.66
2018-09-01T20:53:13.212Z,12.71
2018-09-01T20:55:44.956Z,12.68
2018-09-01T20:58:17.250Z,12.43
2018-09-01T21:00:47.841Z,12.46
2018-09-01T21:03:18.917Z,12.47
2018-09-01T21:05:50.107Z,12.42
2018-09-01T21:08:21.563Z,12.41
2018-09-01T21:10:50.603Z,12.62
2018-09-01T21:13:19.987Z,12.58
2018-09-01T21:15:49.700Z,12.64
2018-09-01T21:18:21.195Z,12.40
2018-09-01T21:20:52.210Z,12.32
2018-09-01T21:23:24.160Z,12.14
2018-09-01T21:25:53.621Z,12.40
2018-09-01T21:28:25.016Z,12.45
2018-09-01T21:30:56.421Z,12.35
2018-09-01T21:33:29.278Z,12.30
2018-09-01T21:35:59.128Z,12.48
2018-09-01T21:38:33.077Z,12.28
2018-09-01T21:41:03.855Z,12.31
2018-09-01T21:43:33.418Z,12.35
2018-09-01T21:46:05.009Z,12.16
2018-09-01T21:48:35.821Z,12.08
2018-09-01T21:51:05.311Z,12.22
2018-09-01T21:53:39.355Z,11.95
2018-09-01T21:56:10.607Z,12.13
2018-09-01T21:58:48.791Z,12.09
2018-09-01T22:01:26.454Z,11.90
2018-09-01T22:03:59.856Z,11.82
2018-09-01T22:06:29.503Z,11.72
2018-09-01T22:12:12.152Z,11.37
2018-09-01T22:14:52.062Z,11.35
2018-09-01T22:17:22.904Z,11.61
2018-09-01T22:19:59.342Z,11.57
2018-09-01T22:22:30.145Z,11.37
2018-09-01T22:25:03.476Z,11.26
2018-09-01T22:27:36.667Z,11.32
2018-09-01T22:30:11.015Z,11.55
2018-09-01T22:32:41.989Z,11.43
2018-09-01T22:35:11.525Z,11.54
2018-09-01T22:37:44.484Z,11.39
2018-09-01T22:40:13.620Z,11.03
2018-09-01T22:42:43.578Z,10.99
2018-09-01T22:45:12.819Z,11.27
2018-09-01T22:47:43.689Z,10.95
2018-09-01T22:50:12.771Z,11.14
2018-09-01T22:52:42.237Z,11.08
2018-09-01T22:55:11.368Z,11.31
2018-09-01T22:57:41.876Z,11.06
2018-09-01T23:00:11.250Z,10.96
2018-09-01T23:02:40.893Z,11.08
2018-09-01T23:05:11.403Z,10.87
2018-09-01T23:07:39.955Z,10.78
2018-09-01T23:10:12.204Z,10.83
2018-09-01T23:12:41.498Z,10.61
2018-09-01T23:15:12.079Z,10.89
2018-09-01T23:17:41.796Z,10.30
2018-09-01T23:20:11.084Z,10.50
2018-09-01T23:22:40.463Z,10.30
2018-09-01T23:25:09.048Z,10.57
2018-09-01T23:27:39.178Z,10.70
2018-09-01T23:30:09.146Z,10.46
2018-09-01T23:32:39.825Z,10.53
2018-09-01T23:35:09.464Z,10.62
2018-09-01T23:37:39.607Z,10.66
2018-09-01T23:40:09.326Z,10.71
2018-09-01T23:42:39.284Z,10.75
2018-09-01T23:45:09.248Z,10.73
2018-09-01T23:47:40.023Z,10.41
2018-09-01T23:50:10.632Z,10.85
2018-09-01T23:52:39.884Z,10.38
2018-09-01T23:55:10.793Z,10.73
2018-09-01T23:57:40.281Z,10.51
